»·PEaware :: N335AK KPSC-KOTH

N335AK :: KPSC-KOTH

FLIGHT INFORMATION

Flight Status: Arrived
Operator: Privately registered:
United States
More flights under this callsign
Pilot: Gabor H. (24209)
Aircraft: Unknown
(EPIC)
More flights by this aircraft type
Origin: KPSC Tri-Cities
United States
Destination: KOTH North Bend Mun
United States
More flights between these airports :: More routes between these airports
Route: +PSC7 LTJ EUG OTH
File this flight plan on PilotEdge
Remarks:
Altitude:
(Current/Filed)
28,000ft
Speed:
(Current/Filed)
325kts
Departed: 30-Oct-20 02:53 PM
Arrived: 30-Oct-20 04:06 PM
Distance/Time
Traveled:
277nm/1:13
Distance/Time
To Go:
Arrived

Flight Plot

Page will automatically refresh every two minutes.

Flight plan parsing failed; only flown route is shown


Map Options




Map Legend


Flown Route
Filed Route
Departure Airport
Arrival Airport
Navaid (VOR, NDB)
Fix

Horizontal Profiles

Position Reports

Time Latitude Longitude Heading Altitude Ground
Speed
30-Oct-20 14:40 46.264530 -119.105772 338 411ft 0kts
30-Oct-20 14:41 46.264530 -119.105772 338 411ft 0kts
30-Oct-20 14:42 46.264530 -119.105772 338 411ft 0kts
30-Oct-20 14:43 46.264530 -119.105772 338 411ft 0kts
30-Oct-20 14:44 46.264530 -119.105772 338 411ft 0kts
30-Oct-20 14:45 46.264530 -119.105772 338 411ft 0kts
30-Oct-20 14:46 46.264530 -119.105772 338 411ft 0kts
30-Oct-20 14:47 46.264530 -119.105772 338 411ft 0kts
30-Oct-20 14:48 46.264530 -119.105772 338 411ft 0kts
30-Oct-20 14:49 46.267400 -119.108604 358 409ft 21kts
30-Oct-20 14:50 46.269606 -119.110495 313 408ft 0kts
30-Oct-20 14:51 46.269610 -119.110501 313 408ft 0kts
30-Oct-20 14:52 46.267345 -119.116696 226 403ft 105kts
30-Oct-20 14:53 46.233463 -119.161386 225 2229ft 195kts
30-Oct-20 14:54 46.193194 -119.213548 225 5309ft 201kts
30-Oct-20 14:55 46.171101 -119.284331 253 8300ft 201kts
30-Oct-20 14:56 46.152333 -119.361442 255 11112ft 210kts
30-Oct-20 14:57 46.132739 -119.442081 257 13786ft 217kts
30-Oct-20 14:58 46.112482 -119.525096 257 16326ft 224kts
30-Oct-20 14:59 46.091630 -119.610226 258 18656ft 229kts
30-Oct-20 15:00 46.070085 -119.697842 257 20639ft 235kts
30-Oct-20 15:01 46.047962 -119.787464 258 22330ft 240kts
30-Oct-20 15:02 46.025271 -119.879024 258 23739ft 245kts
30-Oct-20 15:03 46.002145 -119.971957 258 24927ft 249kts
30-Oct-20 15:04 45.978588 -120.066181 258 25932ft 252kts
30-Oct-20 15:05 45.954661 -120.161546 258 26776ft 255kts
30-Oct-20 15:06 45.930371 -120.257926 259 27482ft 257kts
30-Oct-20 15:07 45.905822 -120.354930 259 28003ft 262kts
30-Oct-20 15:08 45.880538 -120.454398 259 28043ft 263kts
30-Oct-20 15:09 45.855491 -120.552579 259 28078ft 263kts
30-Oct-20 15:10 45.830126 -120.651487 258 28104ft 266kts
30-Oct-20 15:11 45.804332 -120.751708 258 28128ft 269kts
30-Oct-20 15:12 45.778244 -120.852550 258 28128ft 271kts
30-Oct-20 15:13 45.751994 -120.953604 258 28127ft 271kts
30-Oct-20 15:14 45.725519 -121.055120 258 28127ft 272kts
30-Oct-20 15:15 45.680584 -121.146266 235 28129ft 296kts
30-Oct-20 15:16 45.621296 -121.228506 235 28125ft 299kts
30-Oct-20 15:17 45.561371 -121.311100 234 28123ft 300kts
30-Oct-20 15:18 45.501177 -121.393816 234 28125ft 301kts
30-Oct-20 15:19 45.440731 -121.476615 234 28123ft 301kts
30-Oct-20 15:20 45.380271 -121.559159 235 28121ft 301kts
30-Oct-20 15:21 45.319827 -121.641450 235 28122ft 301kts
30-Oct-20 15:22 45.259280 -121.723619 234 28144ft 302kts
30-Oct-20 15:23 45.198378 -121.805998 234 28169ft 303kts
30-Oct-20 15:24 45.137294 -121.888385 234 28190ft 303kts
30-Oct-20 15:25 45.076079 -121.970695 233 28204ft 303kts
30-Oct-20 15:26 45.015061 -122.052476 232 28204ft 303kts
30-Oct-20 15:27 44.953861 -122.134248 231 28203ft 302kts
30-Oct-20 15:28 44.892901 -122.215429 231 28212ft 301kts
30-Oct-20 15:29 44.832020 -122.296270 231 28221ft 300kts
30-Oct-20 15:30 44.771104 -122.376923 231 28222ft 300kts
30-Oct-20 15:31 44.710403 -122.457032 231 28218ft 300kts
30-Oct-20 15:32 44.649705 -122.536905 231 28214ft 300kts
30-Oct-20 15:33 44.588748 -122.616885 231 28213ft 299kts
30-Oct-20 15:34 44.525954 -122.699080 230 27150ft 325kts
30-Oct-20 15:35 44.457372 -122.788474 229 25426ft 346kts
30-Oct-20 15:36 44.386384 -122.880713 229 23575ft 351kts
30-Oct-20 15:38 44.315370 -122.972656 229 21677ft 341kts
30-Oct-20 15:39 44.246897 -123.061018 228 19864ft 332kts
30-Oct-20 15:40 44.179734 -123.147411 228 18064ft 323kts
30-Oct-20 15:41 44.115874 -123.229826 230 16250ft 306kts
30-Oct-20 15:42 44.056206 -123.310962 229 14625ft 296kts
30-Oct-20 15:43 43.998069 -123.389902 229 13030ft 288kts
30-Oct-20 15:44 43.941925 -123.465907 229 11606ft 278kts
30-Oct-20 15:45 43.886860 -123.540259 229 10188ft 277kts
30-Oct-20 15:46 43.832543 -123.613357 229 9996ft 272kts
30-Oct-20 15:47 43.778288 -123.686356 232 10002ft 272kts
30-Oct-20 15:48 43.741955 -123.775748 245 10015ft 266kts
30-Oct-20 15:49 43.706557 -123.865800 245 10027ft 266kts
30-Oct-20 15:50 43.671487 -123.954867 245 9683ft 255kts
30-Oct-20 15:51 43.637378 -124.040347 245 8379ft 256kts
30-Oct-20 15:52 43.602907 -124.126864 245 7133ft 258kts
30-Oct-20 15:52 43.574120 -124.199692 245 6127ft 260kts
30-Oct-20 15:54 43.535488 -124.297399 245 6000ft 250kts
30-Oct-20 15:54 43.507341 -124.368844 245 5999ft 256kts
30-Oct-20 15:56 43.467516 -124.470200 246 5995ft 258kts
30-Oct-20 15:57 43.434034 -124.556180 246 4234ft 255kts
30-Oct-20 15:58 43.386471 -124.609355 153 2996ft 234kts
30-Oct-20 15:58 43.350233 -124.561891 132 3002ft 219kts
30-Oct-20 15:59 43.311781 -124.497095 92 3002ft 215kts
30-Oct-20 16:00 43.341895 -124.437147 55 2997ft 190kts
30-Oct-20 16:01 43.366570 -124.377684 56 2004ft 152kts
30-Oct-20 16:02 43.383758 -124.336014 56 1263ft 113kts
30-Oct-20 16:03 43.397937 -124.300714 57 729ft 95kts
30-Oct-20 16:04 43.411760 -124.267729 54 207ft 94kts
30-Oct-20 16:05 43.417901 -124.251342 152 19ft 12kts
30-Oct-20 16:06 43.418119 -124.246965 222 23ft 11kts
30-Oct-20 16:07 43.417495 -124.247167 152 27ft 0kts
30-Oct-20 16:08 43.417495 -124.247167 152 27ft 0kts
30-Oct-20 16:09 43.417495 -124.247167 152 27ft 0kts
30-Oct-20 16:10 43.417495 -124.247167 152 27ft 0kts
30-Oct-20 16:11 43.417495 -124.247167 152 27ft 0kts
30-Oct-20 16:12 43.417495 -124.247167 152 27ft 0kts
30-Oct-20 16:13 43.417495 -124.247167 152 27ft 0kts
30-Oct-20 16:14 43.417495 -124.247167 152 27ft 0kts
30-Oct-20 16:15 43.417495 -124.247167 152 27ft 0kts
30-Oct-20 16:16 43.417495 -124.247167 152 27ft 0kts
30-Oct-20 16:17 43.417495 -124.247167 152 27ft 0kts
30-Oct-20 16:18 43.417495 -124.247167 152 27ft 0kts
30-Oct-20 16:19 43.417495 -124.247167 152 27ft 0kts

Navigation Log

Ident Type
Flight plan parsing failed, navigation log unavailable